Latest Weather Observations for Grafton Airport

IDN60801

Issued at 8:02 am EDT Thursday 30 March 2017 (issued every 30 minutes, with the page automatically refreshed every 10 minutes)

About weather observations | Map of weather stations | Latest weather observations for NSW | Other Formats
Station Details ID: 058161 Name: GRAFTON AIRPORT AWS Lat: -29.76 Lon: 153.03 Height: 25.09 m
Data from the previous 72 hours. | See also: Recent months at Grafton Airport
Date/Time
EDT
Temp
°C
App
Temp
°C
Dew
Point
°C
Rel
Hum
%
Delta-T
°C
Wind Press
QNH
hPa
Press
MSL
hPa
Rain since
9am
mm
Dir  Spd
km/h
Gust
km/h
Spd
kts
Gust
kts
30/08:00am 23.9 26.6 23.4 97 0.3 NE 15 20 8 11 1011.1 1011.0 6.2
30/07:30am 23.8 26.4 23.3 97 0.3 NNE 15 20 8 11 1011.0 1010.9 5.6
30/07:00am 23.8 26.9 23.5 98 0.2 NE 13 19 7 10 1010.8 1010.7 5.2
30/06:30am 23.8 27.3 23.5 98 0.2 NE 11 15 6 8 1010.5 1010.4 4.6
30/06:00am 23.8 26.5 23.5 98 0.2 NE 15 22 8 12 1010.6 1010.5 4.0
30/05:34am 23.7 26.8 23.5 99 0.1 NE 13 17 7 9 1010.5 1010.4 2.8
30/05:30am 23.7 26.8 23.5 99 0.1 NNE 13 19 7 10 1010.5 1010.4 2.8
30/05:01am 24.0 25.7 23.0 94 0.7 NNE 19 24 10 13 1010.6 1010.5 2.0
30/05:00am 24.0 25.7 23.0 94 0.7 NNE 19 24 10 13 1010.6 1010.5 2.0
30/04:30am 24.0 25.7 23.1 95 0.6 NNE 19 22 10 12 1010.7 1010.6 2.0
30/04:00am 23.8 27.2 23.3 97 0.3 NE 11 15 6 8 1010.8 1010.7 2.0
30/03:52am 23.8 26.7 23.1 96 0.5 NE 13 17 7 9 1010.9 1010.8 2.0
30/03:31am 23.9 26.8 23.2 96 0.5 NNE 13 17 7 9 1011.1 1011.0 2.0
30/03:30am 23.9 26.8 23.2 96 0.5 NNE 13 17 7 9 1011.1 1011.0 2.0
30/03:00am 23.8 26.9 23.6 99 0.1 NNE 13 17 7 9 1011.4 1011.3 2.0
30/02:30am 23.7 27.7 23.7 100 0.0 NNE 9 11 5 6 1011.8 1011.7 2.0
30/02:20am 23.7 27.3 23.7 100 0.0 NNE 11 15 6 8 1012.0 1011.9 2.0
30/02:00am 23.6 27.5 23.6 100 0.0 N 9 13 5 7 1012.1 1012.0 2.0
30/01:30am 23.6 27.4 23.4 99 0.1 N 9 13 5 7 1012.4 1012.3 1.6
30/01:00am 24.0 27.1 22.8 93 0.8 N 11 24 6 13 1012.5 1012.4 0.6
30/12:57am 24.2 27.7 22.8 92 0.9 NNE 9 11 5 6 1012.5 1012.4 0.0
30/12:30am 24.0 27.8 22.4 91 1.1 N 6 7 3 4 1012.6 1012.5 0.0
30/12:00am 24.0 28.1 22.3 90 1.1 NNW 4 7 2 4 1012.7 1012.6 0.0
 
Date/Time
EDT
Temp
°C
App
Temp
°C
Dew
Point
°C
Rel
Hum
%
Delta-T
°C
Wind Press
QNH
hPa
Press
MSL
hPa
Rain since
9am
mm
Dir  Spd
km/h
Gust
km/h
Spd
kts
Gust
kts
29/11:34pm 23.8 28.6 22.1 90 1.1 CALM 0 0 0 0 1012.9 1012.8 0.0
29/11:30pm 23.7 28.4 22.0 90 1.1 CALM 0 0 0 0 1012.9 1012.8 0.0
29/11:00pm 23.8 27.3 21.9 89 1.3 N 6 7 3 4 1012.9 1012.8 0.0
29/10:30pm 24.0 27.4 21.7 87 1.5 NNE 6 9 3 5 1013.2 1013.1 0.0
29/10:00pm 24.3 26.6 22.0 87 1.5 NNE 13 15 7 8 1013.7 1013.6 0.0
29/09:30pm 24.4 26.2 21.9 86 1.7 NNE 15 20 8 11 1014.0 1013.9 0.0
29/09:00pm 24.5 26.3 21.8 85 1.8 NNE 15 19 8 10 1013.7 1013.6 0.0
29/08:30pm 24.6 26.0 21.9 85 1.8 NNE 17 20 9 11 1013.5 1013.4 0.0
29/08:00pm 24.7 27.0 22.0 85 1.8 NNE 13 19 7 10 1013.1 1013.0 0.0
29/07:30pm 24.8 26.9 21.7 83 2.1 NE 13 17 7 9 1012.7 1012.6 0.0
29/07:00pm 25.2 26.9 21.7 81 2.3 NE 15 19 8 10 1012.4 1012.3 0.0
29/06:30pm 25.8 27.9 21.7 78 2.7 NE 13 15 7 8 1012.2 1012.1 0.0
29/06:00pm 26.6 28.6 21.6 74 3.3 NE 13 19 7 10 1011.9 1011.8 0.0
29/05:30pm 27.4 28.5 21.9 72 3.7 NE 19 24 10 13 1011.7 1011.6 0.0
29/05:00pm 29.1 30.5 21.1 62 5.3 NNE 15 20 8 11 1011.5 1011.4 0.0
29/04:30pm 29.1 29.2 19.1 54 6.5 N 17 22 9 12 1011.7 1011.6 0.0
29/04:00pm 29.6 29.2 19.0 53 6.9 NNE 19 26 10 14 1011.6 1011.5 0.0
29/03:30pm 29.8 30.4 19.5 54 6.7 NNE 15 19 8 10 1011.7 1011.6 0.0
29/03:00pm 29.3 29.5 19.3 55 6.5 N 17 22 9 12 1012.2 1012.1 0.0
29/02:30pm 29.2 30.1 19.2 54 6.5 NNE 13 20 7 11 1012.5 1012.4 0.0
29/02:00pm 28.4 29.5 19.6 59 5.7 NNW 13 26 7 14 1012.9 1012.8 0.0
29/01:30pm 28.9 31.2 21.4 64 5.0 N 11 24 6 13 1013.3 1013.2 0.0
29/01:00pm 28.1 30.3 21.1 65 4.7 NNE 11 15 6 8 1014.0 1013.9 0.0
29/12:30pm 27.1 28.7 20.7 68 4.2 N 13 20 7 11 1014.3 1014.2 0.0
29/12:00pm 26.6 28.2 20.7 70 3.9 N 13 20 7 11 1014.6 1014.5 0.0
29/11:30am 26.8 28.5 20.9 70 3.9 NNE 13 19 7 10 1015.0 1014.9 0.0
29/11:00am 26.2 28.1 19.8 68 4.2 NNE 9 13 5 7 1015.2 1015.1 0.0
29/10:30am 25.9 28.6 20.7 73 3.4 NNE 7 13 4 7 1015.2 1015.1 0.0
29/10:00am 24.9 27.8 19.9 74 3.2 W 4 7 2 4 1015.3 1015.2 0.0
29/09:30am 23.8 26.5 20.3 81 2.3 W 6 7 3 4 1015.3 1015.2 0.0
29/09:00am 22.8 26.0 19.8 83 1.9 NNE 2 7 1 4 1015.2 1015.1 0.0
29/08:30am 21.3 24.8 19.6 90 1.1 CALM 0 0 0 0 1015.1 1015.0 0.0
29/08:00am 20.5 24.3 20.2 98 0.2 CALM 0 0 0 0 1014.7 1014.6 0.0
29/07:30am 19.2 22.4 18.9 98 0.2 CALM 0 0 0 0 1014.4 1014.3 0.0
29/07:00am 19.1 22.2 18.6 97 0.3 CALM 0 0 0 0 1014.0 1013.9 0.0
29/06:30am 19.5 22.8 19.2 98 0.2 CALM 0 0 0 0 1013.7 1013.6 0.0
29/06:00am 19.3 22.5 18.8 97 0.3 CALM 0 0 0 0 1013.3 1013.2 0.0
29/05:30am 19.4 21.5 18.9 97 0.3 SSW 6 9 3 5 1013.0 1012.9 0.0
29/05:00am 19.5 22.3 18.8 96 0.4 SSW 2 6 1 3 1012.9 1012.8 0.0
29/04:30am 19.6 22.1 19.1 97 0.3 SSW 4 7 2 4 1012.9 1012.8 0.0
29/04:00am 19.6 22.4 18.9 96 0.4 SSW 2 7 1 4 1013.1 1013.0 0.0
29/03:30am 19.7 22.9 18.9 95 0.5 CALM 0 0 0 0 1013.4 1013.3 0.0
29/03:00am 19.9 23.2 19.1 95 0.5 CALM 0 0 0 0 1013.6 1013.5 0.0
29/02:30am 19.9 22.4 19.1 95 0.5 SSW 4 7 2 4 1013.7 1013.6 0.0
29/02:00am 20.1 23.4 19.1 94 0.6 CALM 0 0 0 0 1014.1 1014.0 0.0
29/01:30am 20.3 22.5 19.3 94 0.6 S 6 7 3 4 1014.2 1014.1 0.0
29/01:00am 20.4 22.4 19.2 93 0.8 SSW 7 9 4 5 1014.3 1014.2 0.0
29/12:30am 20.7 22.8 19.4 92 0.8 S 7 9 4 5 1014.3 1014.2 0.0
29/12:00am 20.9 23.5 19.2 90 1.1 S 4 7 2 4 1014.2 1014.1 0.0
 
Date/Time
EDT
Temp
°C
App
Temp
°C
Dew
Point
°C
Rel
Hum
%
Delta-T
°C
Wind Press
QNH
hPa
Press
MSL
hPa
Rain since
9am
mm
Dir  Spd
km/h
Gust
km/h
Spd
kts
Gust
kts
28/11:30pm 21.2 23.4 19.3 89 1.2 S 6 9 3 5 1014.4 1014.3 0.0
28/11:00pm 21.7 24.0 19.4 87 1.5 S 6 7 3 4 1014.4 1014.3 0.0
28/10:30pm 21.9 25.2 19.1 84 1.8 CALM 0 0 0 0 1014.5 1014.4 0.0
28/10:00pm 22.7 26.0 19.1 80 2.3 CALM 0 0 0 0 1014.5 1014.4 0.0
28/09:30pm 23.3 25.5 19.2 78 2.6 E 6 6 3 3 1014.4 1014.3 0.0
28/09:00pm 23.5 25.8 19.4 78 2.6 ENE 6 7 3 4 1013.9 1013.8 0.0
28/08:30pm 23.7 25.4 19.4 77 2.8 ENE 9 13 5 7 1013.6 1013.5 0.0
28/08:00pm 24.2 25.7 19.7 76 2.9 NE 11 15 6 8 1013.2 1013.1 0.0
28/07:30pm 24.9 26.0 19.7 73 3.4 NE 13 19 7 10 1012.7 1012.6 0.0
28/07:00pm 25.6 27.1 19.7 70 3.8 ENE 11 15 6 8 1012.4 1012.3 0.0
28/06:30pm 26.9 28.3 20.3 67 4.3 NE 13 15 7 8 1012.3 1012.2 0.0
28/06:00pm 28.3 29.5 20.6 63 5.1 NNE 15 19 8 10 1011.9 1011.8 0.0
28/05:30pm 29.3 30.5 20.7 59 5.7 NNE 15 19 8 10 1011.8 1011.7 0.0
28/05:00pm 29.9 31.5 19.9 55 6.6 N 11 15 6 8 1011.6 1011.5 0.0
28/04:30pm 30.1 31.5 19.5 53 6.9 N 11 15 6 8 1011.5 1011.4 0.0
28/04:00pm 30.1 31.3 19.8 54 6.8 N 13 20 7 11 1011.6 1011.5 0.0
28/03:30pm 30.5 32.1 20.7 55 6.5 N 13 17 7 9 1011.6 1011.5 0.0
28/03:00pm 30.1 31.6 19.8 54 6.8 N 11 17 6 9 1011.8 1011.7 0.0
28/02:30pm 29.8 31.2 18.6 51 7.2 N 9 15 5 8 1012.0 1011.9 0.0
28/02:00pm 29.4 31.0 19.1 54 6.7 N 9 17 5 9 1012.4 1012.3 0.0
28/01:30pm 29.1 30.2 19.7 57 6.1 NNE 13 17 7 9 1012.7 1012.6 0.0
28/01:00pm 28.5 29.7 20.0 60 5.6 NNE 13 20 7 11 1013.1 1013.0 0.0
28/12:30pm 28.0 29.5 19.8 61 5.4 NNE 11 19 6 10 1013.4 1013.3 0.0
28/12:00pm 27.6 28.9 20.2 64 4.8 NNE 13 20 7 11 1013.9 1013.8 0.0
28/11:30am 27.4 29.1 21.0 68 4.2 N 13 20 7 11 1014.1 1014.0 0.0
28/11:00am 26.9 28.3 19.5 64 4.8 NNW 11 17 6 9 1014.2 1014.1 0.0
28/10:30am 26.4 28.4 20.0 68 4.2 N 9 20 5 11 1014.4 1014.3 0.0
28/10:00am 25.7 28.3 20.0 71 3.7 NNE 6 11 3 6 1014.5 1014.4 0.0
28/09:30am 24.2 26.6 19.7 76 2.9 N 6 9 3 5 1014.4 1014.3 0.0
28/09:00am 23.3 25.7 20.1 82 2.1 N 7 11 4 6 1014.3 1014.2 0.0
28/08:30am 22.3 24.8 19.8 86 1.6 N 6 7 3 4 1014.2 1014.1 0.0
28/08:00am 21.3 23.8 19.8 91 1.0 N 6 9 3 5 1013.7 1013.6 0.0
28/07:30am 20.7 22.5 19.5 93 0.8 NE 9 11 5 6 1013.3 1013.2 0.0
28/07:00am 20.9 23.1 19.7 93 0.8 NNE 7 9 4 5 1013.3 1013.2 0.0
28/06:30am 20.9 23.7 19.7 93 0.8 N 4 7 2 4 1013.0 1012.9 0.0
28/06:00am 21.0 22.9 19.7 92 0.8 NNE 9 11 5 6 1012.7 1012.6 0.0
28/05:30am 20.8 24.3 19.6 93 0.8 CALM 0 0 0 0 1012.6 1012.5 0.0
28/05:00am 20.8 24.5 20.0 95 0.5 CALM 0 0 0 0 1012.2 1012.1 0.0
28/04:30am 20.4 23.8 19.4 94 0.6 CALM 0 0 0 0 1012.3 1012.2 0.0
28/04:00am 20.4 23.7 19.2 93 0.8 CALM 0 0 0 0 1012.5 1012.4 0.0
28/03:30am 20.5 23.8 19.0 91 0.9 CALM 0 0 0 0 1012.7 1012.6 0.0
28/03:00am 21.3 24.6 19.2 88 1.3 CALM 0 0 0 0 1012.8 1012.7 0.0
28/02:30am 21.9 25.4 19.5 86 1.5 CALM 0 0 0 0 1013.7 1013.6 0.0
28/02:00am 22.0 25.7 19.9 88 1.3 CALM 0 0 0 0 1014.1 1014.0 0.0
28/01:30am 22.1 25.7 19.8 87 1.5 CALM 0 0 0 0 1014.4 1014.3 0.0
28/01:00am 21.9 25.6 20.0 89 1.2 CALM 0 0 0 0 1014.6 1014.5 0.0
28/12:30am 21.7 24.2 19.8 89 1.2 NE 6 7 3 4 1015.0 1014.9 0.0
28/12:00am 21.6 23.9 19.5 88 1.3 NE 6 7 3 4 1015.0 1014.9 0.0
 
Date/Time
EDT
Temp
°C
App
Temp
°C
Dew
Point
°C
Rel
Hum
%
Delta-T
°C
Wind Press
QNH
hPa
Press
MSL
hPa
Rain since
9am
mm
Dir  Spd
km/h
Gust
km/h
Spd
kts
Gust
kts
27/11:30pm 21.6 25.0 19.3 87 1.5 CALM 0 0 0 0 1015.1 1015.0 0.0
27/11:00pm 21.6 25.2 19.7 89 1.2 CALM 0 0 0 0 1015.2 1015.1 0.0
27/10:30pm 21.3 24.6 19.2 88 1.3 CALM 0 0 0 0 1015.2 1015.1 0.0
27/10:00pm 21.1 24.4 19.0 88 1.3 CALM 0 0 0 0 1015.3 1015.2 0.0
27/09:30pm 21.2 24.3 18.6 85 1.6 CALM 0 0 0 0 1015.2 1015.1 0.0
27/09:00pm 22.2 24.6 18.8 81 2.1 NE 4 6 2 3 1015.1 1015.0 0.0
27/08:30pm 22.4 24.2 18.8 80 2.3 NE 7 11 4 6 1014.9 1014.8 0.0
27/08:00pm 22.7 24.5 18.7 78 2.5 NE 7 11 4 6 1014.6 1014.5 0.0
27/07:30pm 23.1 24.5 18.6 76 2.8 NE 9 13 5 7 1014.3 1014.2 0.0
27/07:00pm 23.7 24.8 18.8 74 3.1 ENE 11 15 6 8 1014.0 1013.9 0.0
27/06:30pm 24.6 25.2 18.5 69 3.9 NE 13 19 7 10 1013.7 1013.6 0.0
27/06:00pm 25.3 25.9 18.7 67 4.2 NE 13 19 7 10 1013.5 1013.4 0.0
27/05:30pm 25.3 25.3 18.2 64 4.5 ENE 15 22 8 12 1013.3 1013.2 0.0
27/05:00pm 27.0 27.3 18.8 60 5.3 ENE 15 20 8 11 1013.3 1013.2 0.0
27/04:30pm 27.4 27.4 18.9 59 5.5 ENE 17 24 9 13 1013.3 1013.2 0.0
27/04:00pm 27.5 28.1 18.5 58 5.8 ENE 13 19 7 10 1013.4 1013.3 0.0
27/03:30pm 27.3 28.3 19.4 62 5.1 E 13 19 7 10 1013.8 1013.7 0.0
27/03:00pm 26.6 26.7 17.4 57 5.8 ESE 13 19 7 10 1013.9 1013.8 0.0
27/02:30pm 27.2 27.9 17.9 56 5.9 SSE 11 20 6 11 1014.2 1014.1 0.0
27/02:00pm 28.6 30.1 18.1 53 6.7 NE 7 13 4 7 1014.7 1014.6 0.0
27/01:30pm 27.7 28.7 16.9 51 6.7 SSW 7 13 4 7 1015.2 1015.1 0.0
27/01:00pm 27.5 29.0 18.8 59 5.6 SSE 9 15 5 8 1015.8 1015.7 0.0
27/12:30pm 26.3 27.5 18.2 61 5.1 SSW 9 11 5 6 1016.3 1016.2 0.0
27/12:00pm 27.0 29.3 19.4 63 4.9 W 6 11 3 6 1016.5 1016.4 0.0
27/11:30am 26.3 27.0 17.9 60 5.3 SW 11 17 6 9 1017.0 1016.9 0.0
27/11:00am 26.4 27.5 18.0 60 5.3 SSW 9 13 5 7 1017.3 1017.2 0.0
27/10:30am 26.0 27.6 19.2 66 4.4 SE 9 15 5 8 1017.4 1017.3 0.0
27/10:00am 24.6 26.1 18.8 70 3.7 SSW 9 15 5 8 1017.4 1017.3 0.0
27/09:30am 23.5 25.0 19.0 76 2.9 SW 9 13 5 7 1017.5 1017.4 0.0
27/09:00am 22.7 24.5 19.5 82 2.0 SW 9 13 5 7 1017.3 1017.2 0.8
27/08:30am 21.1 22.3 19.0 88 1.3 SSW 11 15 6 8 1017.2 1017.1 0.8

Other Formats:

Comma delimited format used in spreadsheet applications
http://www.bom.gov.au/fwo/IDN60801/IDN60801.95570.axf

JavaScript Object Notation format (JSON) in row-major order
http://www.bom.gov.au/fwo/IDN60801/IDN60801.95570.json